createdAt,value
2022-11-16T00:02:43.870Z,84.50
2022-11-16T00:07:43.347Z,84.49
2022-11-16T00:12:43.025Z,84.50
2022-11-16T00:17:41.784Z,84.50
2022-11-16T00:22:42.086Z,84.50
2022-11-16T00:27:41.414Z,84.52
2022-11-16T00:32:40.899Z,84.57
2022-11-16T00:37:40.020Z,84.57
2022-11-16T00:42:39.128Z,84.51
2022-11-16T00:47:37.914Z,84.50
2022-11-16T00:52:36.645Z,84.50
2022-11-16T00:57:36.633Z,84.50
2022-11-16T01:02:36.684Z,84.49
2022-11-16T01:07:37.903Z,84.39
2022-11-16T01:12:37.647Z,84.32
2022-11-16T01:17:36.816Z,84.30
2022-11-16T01:22:38.151Z,84.25
2022-11-16T01:27:37.609Z,84.32
2022-11-16T01:32:37.951Z,84.23
2022-11-16T01:37:37.613Z,84.20
2022-11-16T01:42:37.033Z,84.20
2022-11-16T01:47:35.700Z,84.19
2022-11-16T01:52:39.317Z,84.16
2022-11-16T01:57:45.178Z,84.13
2022-11-16T02:02:45.539Z,84.19
2022-11-16T02:08:37.208Z,84.20
2022-11-16T02:13:59.701Z,84.25
2022-11-16T02:19:25.029Z,84.22
2022-11-16T02:24:44.906Z,84.13
2022-11-16T02:29:49.798Z,84.14
2022-11-16T02:34:56.020Z,84.10
2022-11-16T02:40:02.483Z,84.02
2022-11-16T02:45:04.610Z,84.09
2022-11-16T02:50:11.659Z,84.13
2022-11-16T02:55:13.214Z,84.19
2022-11-16T03:00:22.842Z,84.19
2022-11-16T03:05:33.218Z,84.19
2022-11-16T03:10:57.420Z,84.13
2022-11-16T03:16:01.212Z,84.12
2022-11-16T03:21:11.955Z,84.15
2022-11-16T03:26:16.253Z,84.11
2022-11-16T03:31:23.067Z,84.10
2022-11-16T03:36:28.815Z,84.04
2022-11-16T03:41:32.428Z,84.00
2022-11-16T03:46:33.879Z,84.07
2022-11-16T03:51:32.413Z,84.10
2022-11-16T03:56:31.850Z,84.11
2022-11-16T04:01:31.120Z,84.13
2022-11-16T04:06:48.619Z,84.15
2022-11-16T04:12:04.824Z,84.18
2022-11-16T04:17:21.507Z,84.18
2022-11-16T04:22:58.638Z,84.20
2022-11-16T04:28:14.636Z,84.20
2022-11-16T04:33:42.701Z,84.21
2022-11-16T04:38:41.515Z,84.16
2022-11-16T04:43:40.056Z,84.20
2022-11-16T04:48:39.441Z,84.17
2022-11-16T04:53:38.579Z,84.13
2022-11-16T04:58:45.444Z,84.12
2022-11-16T05:03:44.749Z,84.10
2022-11-16T05:08:43.566Z,84.06
2022-11-16T05:13:43.429Z,84.10
2022-11-16T05:18:42.996Z,84.15
2022-11-16T05:24:09.001Z,84.22
2022-11-16T05:29:08.764Z,84.28
2022-11-16T05:34:09.688Z,84.31
2022-11-16T05:39:10.755Z,84.36
2022-11-16T05:44:10.977Z,84.46
2022-11-16T05:49:27.608Z,84.51
2022-11-16T05:54:54.150Z,84.56
2022-11-16T06:00:08.649Z,84.61
2022-11-16T06:10:51.043Z,84.65
2022-11-16T06:15:50.649Z,84.72
2022-11-16T06:20:52.755Z,84.79
2022-11-16T06:25:56.564Z,84.80
2022-11-16T06:30:58.112Z,84.72
2022-11-16T06:35:57.647Z,84.74
2022-11-16T06:41:04.140Z,84.79
2022-11-16T06:46:04.658Z,84.80
2022-11-16T06:51:04.432Z,84.82
2022-11-16T06:56:28.890Z,84.91
2022-11-16T07:01:29.666Z,84.99
2022-11-16T07:06:34.599Z,85.01
2022-11-16T07:11:35.008Z,85.08
2022-11-16T07:16:35.686Z,85.14
2022-11-16T07:21:35.640Z,85.11
2022-11-16T07:26:41.489Z,85.07
2022-11-16T07:31:44.841Z,85.08
2022-11-16T07:37:04.959Z,85.08
2022-11-16T07:42:06.359Z,85.00
2022-11-16T07:47:25.612Z,84.91
2022-11-16T07:52:25.025Z,85.03
2022-11-16T07:57:32.802Z,85.07
2022-11-16T08:02:34.415Z,85.08
2022-11-16T08:07:34.542Z,85.01
2022-11-16T08:12:34.819Z,84.99
2022-11-16T08:17:33.643Z,85.01
2022-11-16T08:22:35.223Z,84.75
2022-11-16T08:27:36.297Z,84.50
2022-11-16T08:32:35.904Z,84.37
2022-11-16T08:43:11.321Z,84.20
2022-11-16T08:48:11.604Z,84.21
2022-11-16T08:53:11.179Z,84.25
2022-11-16T08:58:13.295Z,84.17
2022-11-16T09:03:11.903Z,84.10
2022-11-16T09:08:12.189Z,83.90
2022-11-16T09:13:10.705Z,83.92
2022-11-16T09:18:09.799Z,83.92
2022-11-16T09:23:09.013Z,83.83
2022-11-16T09:28:08.826Z,83.87
2022-11-16T09:33:08.367Z,83.88
2022-11-16T09:38:10.119Z,83.88
2022-11-16T09:43:25.200Z,84.00
2022-11-16T09:48:27.026Z,84.04
2022-11-16T09:53:37.829Z,84.01
2022-11-16T09:58:45.462Z,83.79
2022-11-16T10:03:50.775Z,83.40
2022-11-16T10:08:52.953Z,83.04
2022-11-16T10:14:04.444Z,82.89
2022-11-16T10:19:15.951Z,82.70
2022-11-16T10:24:57.897Z,82.18
2022-11-16T10:30:09.325Z,81.99
2022-11-16T10:35:20.239Z,81.83
2022-11-16T10:40:26.328Z,81.57
2022-11-16T10:45:34.338Z,81.29
2022-11-16T10:50:42.261Z,81.05
2022-11-16T10:55:41.874Z,80.82
2022-11-16T11:00:48.373Z,80.45
2022-11-16T11:05:57.364Z,80.35
2022-11-16T11:11:24.278Z,80.19
2022-11-16T11:16:23.409Z,80.17
2022-11-16T11:21:27.518Z,80.25
2022-11-16T11:26:42.351Z,80.21
2022-11-16T11:31:47.084Z,80.05
2022-11-16T11:36:52.796Z,79.86
2022-11-16T11:42:07.629Z,79.47
2022-11-16T11:47:56.130Z,79.40
2022-11-16T11:52:54.153Z,79.32
2022-11-16T11:57:57.108Z,79.16
2022-11-16T12:03:38.778Z,79.29
2022-11-16T12:09:02.329Z,78.79
2022-11-16T12:14:19.384Z,79.15
2022-11-16T12:19:50.148Z,79.38
2022-11-16T12:25:16.384Z,79.69
2022-11-16T12:30:21.307Z,79.82
2022-11-16T12:35:43.078Z,79.78
2022-11-16T12:41:02.427Z,80.10
2022-11-16T12:46:18.421Z,80.39
2022-11-16T12:51:33.649Z,80.61
2022-11-16T12:56:49.279Z,80.92
2022-11-16T13:02:03.532Z,81.18
2022-11-16T13:07:11.439Z,81.26
2022-11-16T13:12:17.329Z,81.41
2022-11-16T13:17:25.669Z,81.39
2022-11-16T13:22:30.774Z,81.68
2022-11-16T13:27:41.103Z,81.79
2022-11-16T13:33:06.738Z,81.83
2022-11-16T13:38:05.966Z,81.78
2022-11-16T13:43:19.095Z,82.07
2022-11-16T13:48:26.084Z,82.10
2022-11-16T13:54:25.183Z,82.21
2022-11-16T13:58:55.710Z,82.28
2022-11-16T14:04:35.384Z,82.43
2022-11-16T14:09:52.174Z,82.51
2022-11-16T14:15:21.056Z,82.47
2022-11-16T14:20:30.979Z,82.43
2022-11-16T14:25:47.146Z,82.43
2022-11-16T14:31:02.224Z,82.49
2022-11-16T14:36:03.638Z,82.36
2022-11-16T14:41:07.781Z,82.26
2022-11-16T14:46:11.477Z,82.26
2022-11-16T14:51:14.951Z,82.19
2022-11-16T14:56:17.135Z,82.20
2022-11-16T15:01:21.733Z,82.25
2022-11-16T15:06:22.665Z,82.32
2022-11-16T15:11:46.614Z,82.27
2022-11-16T15:16:57.170Z,82.25
2022-11-16T15:21:59.310Z,82.32
2022-11-16T15:27:03.371Z,82.39
2022-11-16T15:32:02.418Z,82.44
2022-11-16T15:37:01.670Z,82.60
2022-11-16T15:42:04.010Z,82.65
2022-11-16T15:47:04.567Z,82.76
2022-11-16T15:52:06.265Z,82.73
2022-11-16T15:57:13.823Z,82.79
2022-11-16T16:02:24.724Z,82.90
2022-11-16T16:07:44.972Z,83.00
2022-11-16T16:12:54.943Z,82.96
2022-11-16T16:17:55.312Z,83.04
2022-11-16T16:23:06.189Z,83.04
2022-11-16T16:28:06.086Z,82.99
2022-11-16T16:33:05.354Z,82.88
2022-11-16T16:38:04.606Z,82.72
2022-11-16T16:43:03.821Z,82.71
2022-11-16T16:48:02.798Z,82.64
2022-11-16T16:53:01.551Z,82.54
2022-11-16T16:58:00.805Z,82.44
2022-11-16T17:03:00.100Z,82.32
2022-11-16T17:08:01.139Z,82.29
2022-11-16T17:13:02.753Z,82.25
2022-11-16T17:18:05.609Z,82.07
2022-11-16T17:23:05.348Z,81.90
2022-11-16T17:28:04.242Z,81.78
2022-11-16T17:33:03.165Z,81.68
2022-11-16T17:38:02.636Z,81.64
2022-11-16T17:43:01.567Z,81.60
2022-11-16T17:48:01.313Z,81.53
2022-11-16T17:53:01.077Z,81.49
2022-11-16T17:58:07.171Z,81.38
2022-11-16T18:03:06.998Z,81.27
2022-11-16T18:08:06.439Z,81.17
2022-11-16T18:13:06.020Z,81.28
2022-11-16T18:18:06.392Z,81.48
2022-11-16T18:23:09.012Z,81.61
2022-11-16T18:28:08.010Z,81.66
2022-11-16T18:33:07.209Z,81.59
2022-11-16T18:38:07.430Z,81.50
2022-11-16T18:43:06.800Z,81.42
2022-11-16T18:48:07.708Z,81.33
2022-11-16T18:53:06.813Z,81.29
2022-11-16T18:58:22.581Z,81.27
2022-11-16T19:03:24.013Z,81.28
2022-11-16T19:08:23.373Z,81.24
2022-11-16T19:13:22.506Z,81.11
2022-11-16T19:18:22.317Z,81.03
2022-11-16T19:23:21.275Z,80.90
2022-11-16T19:28:20.830Z,80.79
2022-11-16T19:33:21.456Z,80.80
2022-11-16T19:38:24.257Z,80.82
2022-11-16T19:43:23.685Z,80.64
2022-11-16T19:48:22.771Z,80.61
2022-11-16T19:53:21.930Z,80.56
2022-11-16T19:58:21.000Z,80.49
2022-11-16T20:03:20.268Z,80.48
2022-11-16T20:08:19.980Z,80.41
2022-11-16T20:13:19.141Z,80.47
2022-11-16T20:18:18.239Z,80.42
2022-11-16T20:23:19.628Z,80.40
2022-11-16T20:28:19.289Z,80.31
2022-11-16T20:33:17.992Z,80.19
2022-11-16T20:38:19.897Z,80.10
2022-11-16T20:43:19.308Z,80.06
2022-11-16T20:48:18.814Z,80.00
2022-11-16T20:53:18.955Z,79.96
2022-11-16T20:58:22.792Z,79.84
2022-11-16T21:03:22.050Z,79.88
2022-11-16T21:08:21.572Z,79.81
2022-11-16T21:13:53.595Z,79.69
2022-11-16T21:18:52.161Z,79.65
2022-11-16T21:23:52.654Z,79.57
2022-11-16T21:28:52.325Z,79.54
2022-11-16T21:33:52.964Z,79.60
2022-11-16T21:38:52.491Z,79.57
2022-11-16T21:43:52.132Z,79.49
2022-11-16T21:48:57.316Z,79.40
2022-11-16T21:53:57.433Z,79.39
2022-11-16T21:58:56.953Z,79.22
2022-11-16T22:04:21.744Z,79.18
2022-11-16T22:09:20.473Z,78.94
2022-11-16T22:14:19.357Z,78.70
2022-11-16T22:19:18.325Z,78.45
2022-11-16T22:24:17.076Z,78.50
2022-11-16T22:29:16.455Z,78.44
2022-11-16T22:34:15.337Z,78.40
2022-11-16T22:39:14.854Z,78.39
2022-11-16T22:44:13.712Z,78.33
2022-11-16T22:49:12.549Z,78.34
2022-11-16T22:54:15.677Z,78.38
2022-11-16T22:59:14.353Z,78.26
2022-11-16T23:04:13.030Z,78.28
2022-11-16T23:09:12.131Z,78.16
2022-11-16T23:14:40.811Z,78.11
2022-11-16T23:19:57.418Z,77.98
2022-11-16T23:25:16.942Z,77.66
2022-11-16T23:30:17.795Z,77.29
2022-11-16T23:35:16.621Z,77.01
2022-11-16T23:40:17.349Z,76.81
2022-11-16T23:45:16.741Z,76.85
2022-11-16T23:50:20.539Z,77.04
2022-11-16T23:55:20.089Z,77.08
